sensor_id;sensor_type;location;lat;lon;timestamp;P1;durP1;ratioP1;P2;durP2;ratioP2
74650;SDS011;63169;46.042;14.592;2022-09-03T00:00:32;4.20;;;2.70;;
74650;SDS011;63169;46.042;14.592;2022-09-03T00:03:08;4.28;;;2.50;;
74650;SDS011;63169;46.042;14.592;2022-09-03T00:05:53;3.88;;;2.28;;
74650;SDS011;63169;46.042;14.592;2022-09-03T00:16:17;3.97;;;2.83;;
74650;SDS011;63169;46.042;14.592;2022-09-03T00:18:50;4.00;;;2.60;;
74650;SDS011;63169;46.042;14.592;2022-09-03T00:21:23;4.43;;;2.50;;
74650;SDS011;63169;46.042;14.592;2022-09-03T00:23:56;4.25;;;2.65;;
74650;SDS011;63169;46.042;14.592;2022-09-03T00:26:24;4.97;;;3.00;;
74650;SDS011;63169;46.042;14.592;2022-09-03T00:29:11;4.97;;;2.38;;
74650;SDS011;63169;46.042;14.592;2022-09-03T00:31:43;4.57;;;2.20;;
74650;SDS011;63169;46.042;14.592;2022-09-03T00:34:31;4.05;;;2.15;;
74650;SDS011;63169;46.042;14.592;2022-09-03T00:36:59;6.28;;;2.67;;
74650;SDS011;63169;46.042;14.592;2022-09-03T00:39:25;5.18;;;3.03;;
74650;SDS011;63169;46.042;14.592;2022-09-03T00:55:55;4.95;;;3.00;;
74650;SDS011;63169;46.042;14.592;2022-09-03T01:01:04;5.55;;;2.65;;
74650;SDS011;63169;46.042;14.592;2022-09-03T01:03:38;4.63;;;2.92;;
74650;SDS011;63169;46.042;14.592;2022-09-03T01:06:43;4.70;;;3.22;;
74650;SDS011;63169;46.042;14.592;2022-09-03T01:09:37;4.88;;;2.67;;
74650;SDS011;63169;46.042;14.592;2022-09-03T01:20:24;6.78;;;3.03;;
74650;SDS011;63169;46.042;14.592;2022-09-03T01:25:34;4.90;;;2.42;;
74650;SDS011;63169;46.042;14.592;2022-09-03T01:38:54;6.03;;;2.90;;
74650;SDS011;63169;46.042;14.592;2022-09-03T01:46:43;4.20;;;3.22;;
74650;SDS011;63169;46.042;14.592;2022-09-03T01:52:06;3.97;;;2.78;;
74650;SDS011;63169;46.042;14.592;2022-09-03T02:00:30;7.43;;;3.30;;
74650;SDS011;63169;46.042;14.592;2022-09-03T02:02:59;3.83;;;3.13;;
74650;SDS011;63169;46.042;14.592;2022-09-03T02:05:29;5.53;;;2.92;;
74650;SDS011;63169;46.042;14.592;2022-09-03T02:07:58;5.85;;;5.35;;
74650;SDS011;63169;46.042;14.592;2022-09-03T02:10:26;5.03;;;3.35;;
74650;SDS011;63169;46.042;14.592;2022-09-03T02:12:57;4.75;;;3.17;;
74650;SDS011;63169;46.042;14.592;2022-09-03T02:15:29;4.75;;;3.42;;
74650;SDS011;63169;46.042;14.592;2022-09-03T02:17:57;6.65;;;3.70;;
74650;SDS011;63169;46.042;14.592;2022-09-03T02:20:26;5.57;;;3.35;;
74650;SDS011;63169;46.042;14.592;2022-09-03T02:22:52;5.15;;;3.13;;
74650;SDS011;63169;46.042;14.592;2022-09-03T02:25:18;4.05;;;2.63;;
74650;SDS011;63169;46.042;14.592;2022-09-03T02:30:10;3.93;;;2.77;;
74650;SDS011;63169;46.042;14.592;2022-09-03T02:32:35;6.38;;;2.95;;
74650;SDS011;63169;46.042;14.592;2022-09-03T02:35:01;4.32;;;2.47;;
74650;SDS011;63169;46.042;14.592;2022-09-03T02:37:26;5.28;;;3.03;;
74650;SDS011;63169;46.042;14.592;2022-09-03T02:39:52;5.30;;;3.08;;
74650;SDS011;63169;46.042;14.592;2022-09-03T02:42:17;5.40;;;2.58;;
74650;SDS011;63169;46.042;14.592;2022-09-03T02:44:46;4.97;;;3.28;;
74650;SDS011;63169;46.042;14.592;2022-09-03T02:47:13;5.72;;;2.53;;
74650;SDS011;63169;46.042;14.592;2022-09-03T02:49:39;6.43;;;3.50;;
74650;SDS011;63169;46.042;14.592;2022-09-03T02:52:05;4.03;;;3.35;;
74650;SDS011;63169;46.042;14.592;2022-09-03T02:54:33;5.38;;;4.88;;
74650;SDS011;63169;46.042;14.592;2022-09-03T02:57:03;4.68;;;3.33;;
74650;SDS011;63169;46.042;14.592;2022-09-03T02:59:31;5.53;;;2.97;;
74650;SDS011;63169;46.042;14.592;2022-09-03T03:01:57;7.60;;;4.32;;
74650;SDS011;63169;46.042;14.592;2022-09-03T03:04:23;5.07;;;3.00;;
74650;SDS011;63169;46.042;14.592;2022-09-03T03:06:48;8.75;;;3.08;;
74650;SDS011;63169;46.042;14.592;2022-09-03T03:09:15;4.47;;;2.72;;
74650;SDS011;63169;46.042;14.592;2022-09-03T03:11:41;5.95;;;3.42;;
74650;SDS011;63169;46.042;14.592;2022-09-03T03:14:07;5.38;;;3.53;;
74650;SDS011;63169;46.042;14.592;2022-09-03T03:16:32;6.10;;;3.20;;
74650;SDS011;63169;46.042;14.592;2022-09-03T03:18:57;6.57;;;3.40;;
74650;SDS011;63169;46.042;14.592;2022-09-03T03:21:24;4.68;;;2.83;;
74650;SDS011;63169;46.042;14.592;2022-09-03T03:23:49;6.05;;;3.30;;
74650;SDS011;63169;46.042;14.592;2022-09-03T03:26:16;5.03;;;2.35;;
74650;SDS011;63169;46.042;14.592;2022-09-03T03:28:42;6.40;;;2.75;;
74650;SDS011;63169;46.042;14.592;2022-09-03T03:31:08;5.88;;;2.85;;
74650;SDS011;63169;46.042;14.592;2022-09-03T03:33:35;5.88;;;3.03;;
74650;SDS011;63169;46.042;14.592;2022-09-03T03:36:07;4.25;;;2.60;;
74650;SDS011;63169;46.042;14.592;2022-09-03T03:38:34;4.68;;;2.80;;
74650;SDS011;63169;46.042;14.592;2022-09-03T03:41:10;5.25;;;3.38;;
74650;SDS011;63169;46.042;14.592;2022-09-03T03:43:36;3.88;;;2.80;;
74650;SDS011;63169;46.042;14.592;2022-09-03T03:46:02;4.82;;;2.92;;
74650;SDS011;63169;46.042;14.592;2022-09-03T03:48:29;6.68;;;3.33;;
74650;SDS011;63169;46.042;14.592;2022-09-03T03:50:58;8.48;;;3.65;;
74650;SDS011;63169;46.042;14.592;2022-09-03T03:53:24;5.38;;;2.83;;
74650;SDS011;63169;46.042;14.592;2022-09-03T03:55:53;5.82;;;3.35;;
74650;SDS011;63169;46.042;14.592;2022-09-03T03:58:21;5.05;;;3.47;;
74650;SDS011;63169;46.042;14.592;2022-09-03T04:00:46;5.25;;;3.20;;
74650;SDS011;63169;46.042;14.592;2022-09-03T04:03:14;5.22;;;2.50;;
74650;SDS011;63169;46.042;14.592;2022-09-03T04:05:39;4.18;;;2.70;;
74650;SDS011;63169;46.042;14.592;2022-09-03T04:08:04;5.60;;;3.05;;
74650;SDS011;63169;46.042;14.592;2022-09-03T04:10:30;4.68;;;2.45;;
74650;SDS011;63169;46.042;14.592;2022-09-03T04:12:56;6.53;;;3.53;;
74650;SDS011;63169;46.042;14.592;2022-09-03T04:15:21;6.07;;;3.25;;
74650;SDS011;63169;46.042;14.592;2022-09-03T04:17:47;5.78;;;2.97;;
74650;SDS011;63169;46.042;14.592;2022-09-03T04:20:12;4.95;;;3.10;;
74650;SDS011;63169;46.042;14.592;2022-09-03T04:22:37;4.55;;;3.08;;
74650;SDS011;63169;46.042;14.592;2022-09-03T04:25:03;4.50;;;2.75;;
74650;SDS011;63169;46.042;14.592;2022-09-03T04:27:29;4.85;;;2.53;;
74650;SDS011;63169;46.042;14.592;2022-09-03T04:29:54;5.85;;;3.25;;
74650;SDS011;63169;46.042;14.592;2022-09-03T04:32:20;4.45;;;2.95;;
74650;SDS011;63169;46.042;14.592;2022-09-03T04:35:04;5.53;;;3.90;;
74650;SDS011;63169;46.042;14.592;2022-09-03T04:37:30;7.65;;;3.17;;
74650;SDS011;63169;46.042;14.592;2022-09-03T04:39:56;4.78;;;2.65;;
74650;SDS011;63169;46.042;14.592;2022-09-03T04:42:23;4.22;;;2.53;;
74650;SDS011;63169;46.042;14.592;2022-09-03T04:44:48;5.30;;;3.30;;
74650;SDS011;63169;46.042;14.592;2022-09-03T04:47:14;4.72;;;3.20;;
74650;SDS011;63169;46.042;14.592;2022-09-03T04:49:40;5.80;;;3.67;;
74650;SDS011;63169;46.042;14.592;2022-09-03T04:52:05;5.40;;;2.85;;
74650;SDS011;63169;46.042;14.592;2022-09-03T04:54:30;4.00;;;2.30;;
74650;SDS011;63169;46.042;14.592;2022-09-03T04:56:56;5.30;;;2.83;;
74650;SDS011;63169;46.042;14.592;2022-09-03T04:59:21;4.50;;;2.28;;
74650;SDS011;63169;46.042;14.592;2022-09-03T05:01:47;7.00;;;3.22;;
74650;SDS011;63169;46.042;14.592;2022-09-03T05:04:12;5.75;;;4.97;;
74650;SDS011;63169;46.042;14.592;2022-09-03T05:06:37;7.90;;;3.08;;
74650;SDS011;63169;46.042;14.592;2022-09-03T05:09:03;5.95;;;2.88;;
74650;SDS011;63169;46.042;14.592;2022-09-03T05:11:29;4.35;;;2.50;;
74650;SDS011;63169;46.042;14.592;2022-09-03T05:13:55;5.82;;;3.05;;
74650;SDS011;63169;46.042;14.592;2022-09-03T05:16:22;5.45;;;2.75;;
74650;SDS011;63169;46.042;14.592;2022-09-03T05:21:17;4.50;;;3.25;;
74650;SDS011;63169;46.042;14.592;2022-09-03T05:23:43;5.18;;;2.83;;
74650;SDS011;63169;46.042;14.592;2022-09-03T05:26:11;6.28;;;2.60;;
74650;SDS011;63169;46.042;14.592;2022-09-03T05:28:38;5.13;;;3.60;;
74650;SDS011;63169;46.042;14.592;2022-09-03T05:31:05;5.22;;;2.85;;
74650;SDS011;63169;46.042;14.592;2022-09-03T05:33:35;4.55;;;3.03;;
74650;SDS011;63169;46.042;14.592;2022-09-03T05:36:07;4.78;;;3.40;;
74650;SDS011;63169;46.042;14.592;2022-09-03T05:38:34;4.20;;;2.90;;
74650;SDS011;63169;46.042;14.592;2022-09-03T05:40:59;7.85;;;5.90;;
74650;SDS011;63169;46.042;14.592;2022-09-03T05:43:26;4.25;;;2.92;;
74650;SDS011;63169;46.042;14.592;2022-09-03T05:46:02;6.70;;;4.70;;
74650;SDS011;63169;46.042;14.592;2022-09-03T05:48:33;6.70;;;3.58;;
74650;SDS011;63169;46.042;14.592;2022-09-03T05:51:00;5.68;;;3.22;;
74650;SDS011;63169;46.042;14.592;2022-09-03T05:53:30;9.80;;;3.42;;
74650;SDS011;63169;46.042;14.592;2022-09-03T05:55:57;5.93;;;2.92;;
74650;SDS011;63169;46.042;14.592;2022-09-03T05:58:24;13.77;;;3.55;;
74650;SDS011;63169;46.042;14.592;2022-09-03T06:00:51;7.68;;;3.15;;
74650;SDS011;63169;46.042;14.592;2022-09-03T06:03:16;7.40;;;3.30;;
74650;SDS011;63169;46.042;14.592;2022-09-03T06:05:48;5.43;;;3.05;;
74650;SDS011;63169;46.042;14.592;2022-09-03T06:08:17;5.57;;;3.28;;
74650;SDS011;63169;46.042;14.592;2022-09-03T06:10:42;8.80;;;3.67;;
74650;SDS011;63169;46.042;14.592;2022-09-03T06:13:08;7.03;;;2.88;;
74650;SDS011;63169;46.042;14.592;2022-09-03T06:15:34;5.38;;;3.05;;
74650;SDS011;63169;46.042;14.592;2022-09-03T06:17:59;6.35;;;3.47;;
74650;SDS011;63169;46.042;14.592;2022-09-03T06:20:24;6.03;;;3.85;;
74650;SDS011;63169;46.042;14.592;2022-09-03T06:22:53;8.07;;;3.90;;
74650;SDS011;63169;46.042;14.592;2022-09-03T06:25:19;5.50;;;4.25;;
74650;SDS011;63169;46.042;14.592;2022-09-03T06:27:45;7.63;;;4.65;;
74650;SDS011;63169;46.042;14.592;2022-09-03T06:32:43;8.98;;;5.03;;
74650;SDS011;63169;46.042;14.592;2022-09-03T06:35:14;7.93;;;4.53;;
74650;SDS011;63169;46.042;14.592;2022-09-03T06:37:40;8.00;;;4.63;;
74650;SDS011;63169;46.042;14.592;2022-09-03T06:42:33;8.35;;;5.28;;
74650;SDS011;63169;46.042;14.592;2022-09-03T06:44:58;24.70;;;7.93;;
74650;SDS011;63169;46.042;14.592;2022-09-03T06:47:24;6.45;;;3.78;;
74650;SDS011;63169;46.042;14.592;2022-09-03T06:49:49;4.97;;;3.72;;
74650;SDS011;63169;46.042;14.592;2022-09-03T06:52:15;8.77;;;4.03;;
74650;SDS011;63169;46.042;14.592;2022-09-03T06:54:40;5.47;;;3.50;;
74650;SDS011;63169;46.042;14.592;2022-09-03T06:57:06;5.75;;;3.58;;
74650;SDS011;63169;46.042;14.592;2022-09-03T06:59:31;6.57;;;3.95;;
74650;SDS011;63169;46.042;14.592;2022-09-03T07:01:56;9.65;;;5.43;;
74650;SDS011;63169;46.042;14.592;2022-09-03T07:04:24;5.35;;;4.25;;
74650;SDS011;63169;46.042;14.592;2022-09-03T07:06:51;26.95;;;6.63;;
74650;SDS011;63169;46.042;14.592;2022-09-03T07:09:17;9.82;;;5.05;;
74650;SDS011;63169;46.042;14.592;2022-09-03T07:11:43;9.60;;;4.03;;
74650;SDS011;63169;46.042;14.592;2022-09-03T07:14:11;12.73;;;4.55;;
74650;SDS011;63169;46.042;14.592;2022-09-03T07:16:37;10.60;;;7.22;;
74650;SDS011;63169;46.042;14.592;2022-09-03T07:19:03;8.23;;;5.63;;
74650;SDS011;63169;46.042;14.592;2022-09-03T07:21:30;10.95;;;6.47;;
74650;SDS011;63169;46.042;14.592;2022-09-03T07:23:58;7.03;;;4.90;;
74650;SDS011;63169;46.042;14.592;2022-09-03T07:26:28;9.93;;;4.65;;
74650;SDS011;63169;46.042;14.592;2022-09-03T07:28:54;5.95;;;4.80;;
74650;SDS011;63169;46.042;14.592;2022-09-03T07:31:24;9.10;;;6.63;;
74650;SDS011;63169;46.042;14.592;2022-09-03T07:33:58;13.63;;;5.10;;
74650;SDS011;63169;46.042;14.592;2022-09-03T07:36:25;30.23;;;6.60;;
74650;SDS011;63169;46.042;14.592;2022-09-03T07:38:54;9.77;;;4.38;;
74650;SDS011;63169;46.042;14.592;2022-09-03T07:41:21;8.38;;;6.28;;
74650;SDS011;63169;46.042;14.592;2022-09-03T07:43:49;11.10;;;5.20;;
74650;SDS011;63169;46.042;14.592;2022-09-03T07:46:17;8.50;;;4.60;;
74650;SDS011;63169;46.042;14.592;2022-09-03T07:48:51;6.90;;;4.80;;
74650;SDS011;63169;46.042;14.592;2022-09-03T07:51:18;7.45;;;4.65;;
74650;SDS011;63169;46.042;14.592;2022-09-03T07:53:45;11.63;;;4.47;;
74650;SDS011;63169;46.042;14.592;2022-09-03T07:56:11;11.32;;;4.53;;
74650;SDS011;63169;46.042;14.592;2022-09-03T07:58:40;5.28;;;3.05;;
74650;SDS011;63169;46.042;14.592;2022-09-03T08:03:42;4.68;;;3.20;;
74650;SDS011;63169;46.042;14.592;2022-09-03T08:06:09;7.28;;;3.60;;
74650;SDS011;63169;46.042;14.592;2022-09-03T08:13:37;9.43;;;4.38;;
74650;SDS011;63169;46.042;14.592;2022-09-03T08:16:04;8.07;;;4.35;;
74650;SDS011;63169;46.042;14.592;2022-09-03T08:18:32;4.22;;;3.65;;
74650;SDS011;63169;46.042;14.592;2022-09-03T08:21:02;6.38;;;3.60;;
74650;SDS011;63169;46.042;14.592;2022-09-03T08:23:29;7.80;;;4.82;;
74650;SDS011;63169;46.042;14.592;2022-09-03T08:28:26;5.40;;;3.03;;
74650;SDS011;63169;46.042;14.592;2022-09-03T08:30:52;3.97;;;2.88;;
74650;SDS011;63169;46.042;14.592;2022-09-03T08:36:02;4.88;;;3.33;;
74650;SDS011;63169;46.042;14.592;2022-09-03T08:38:32;6.80;;;2.92;;
74650;SDS011;63169;46.042;14.592;2022-09-03T08:49:08;5.15;;;3.33;;
74650;SDS011;63169;46.042;14.592;2022-09-03T08:51:36;4.05;;;3.10;;
74650;SDS011;63169;46.042;14.592;2022-09-03T08:54:04;5.85;;;2.72;;
74650;SDS011;63169;46.042;14.592;2022-09-03T08:56:31;6.85;;;3.03;;
74650;SDS011;63169;46.042;14.592;2022-09-03T08:59:02;9.98;;;2.92;;
74650;SDS011;63169;46.042;14.592;2022-09-03T09:20:59;4.32;;;1.20;;
74650;SDS011;63169;46.042;14.592;2022-09-03T09:23:41;5.55;;;1.90;;
74650;SDS011;63169;46.042;14.592;2022-09-03T09:26:11;4.82;;;1.98;;
74650;SDS011;63169;46.042;14.592;2022-09-03T09:28:38;3.92;;;1.52;;
74650;SDS011;63169;46.042;14.592;2022-09-03T09:31:05;4.47;;;3.28;;
74650;SDS011;63169;46.042;14.592;2022-09-03T09:33:33;4.03;;;1.27;;
74650;SDS011;63169;46.042;14.592;2022-09-03T09:36:00;4.65;;;1.50;;
74650;SDS011;63169;46.042;14.592;2022-09-03T09:38:30;2.88;;;1.48;;
74650;SDS011;63169;46.042;14.592;2022-09-03T09:43:58;4.07;;;1.83;;
74650;SDS011;63169;46.042;14.592;2022-09-03T09:46:36;2.70;;;1.20;;
74650;SDS011;63169;46.042;14.592;2022-09-03T09:49:07;6.53;;;1.40;;
74650;SDS011;63169;46.042;14.592;2022-09-03T09:51:46;3.03;;;1.50;;
74650;SDS011;63169;46.042;14.592;2022-09-03T09:54:15;4.63;;;3.45;;
74650;SDS011;63169;46.042;14.592;2022-09-03T09:56:46;3.35;;;1.38;;
74650;SDS011;63169;46.042;14.592;2022-09-03T09:59:22;2.28;;;0.82;;
74650;SDS011;63169;46.042;14.592;2022-09-03T10:01:47;2.03;;;1.30;;
74650;SDS011;63169;46.042;14.592;2022-09-03T10:04:22;1.70;;;0.90;;
74650;SDS011;63169;46.042;14.592;2022-09-03T10:06:55;2.80;;;1.25;;
74650;SDS011;63169;46.042;14.592;2022-09-03T10:09:27;3.58;;;1.48;;
74650;SDS011;63169;46.042;14.592;2022-09-03T10:16:49;2.28;;;1.17;;
74650;SDS011;63169;46.042;14.592;2022-09-03T10:19:22;3.67;;;1.33;;
74650;SDS011;63169;46.042;14.592;2022-09-03T10:22:07;2.00;;;1.08;;
74650;SDS011;63169;46.042;14.592;2022-09-03T10:24:47;2.13;;;1.15;;
74650;SDS011;63169;46.042;14.592;2022-09-03T10:27:17;2.80;;;1.27;;
74650;SDS011;63169;46.042;14.592;2022-09-03T10:29:43;2.08;;;1.10;;
74650;SDS011;63169;46.042;14.592;2022-09-03T10:48:25;4.28;;;1.15;;
74650;SDS011;63169;46.042;14.592;2022-09-03T10:50:55;3.00;;;1.05;;
74650;SDS011;63169;46.042;14.592;2022-09-03T10:53:31;3.08;;;1.17;;
74650;SDS011;63169;46.042;14.592;2022-09-03T10:58:32;2.20;;;0.95;;
74650;SDS011;63169;46.042;14.592;2022-09-03T11:04:11;2.72;;;0.80;;
74650;SDS011;63169;46.042;14.592;2022-09-03T11:09:22;2.58;;;1.10;;
74650;SDS011;63169;46.042;14.592;2022-09-03T11:15:08;4.57;;;1.35;;
74650;SDS011;63169;46.042;14.592;2022-09-03T11:17:37;2.28;;;1.13;;
74650;SDS011;63169;46.042;14.592;2022-09-03T11:20:18;2.58;;;1.00;;
74650;SDS011;63169;46.042;14.592;2022-09-03T11:22:45;2.50;;;0.88;;
74650;SDS011;63169;46.042;14.592;2022-09-03T11:25:16;3.72;;;0.88;;
74650;SDS011;63169;46.042;14.592;2022-09-03T11:28:07;2.05;;;0.85;;
74650;SDS011;63169;46.042;14.592;2022-09-03T11:30:51;3.30;;;2.92;;
74650;SDS011;63169;46.042;14.592;2022-09-03T11:33:44;5.28;;;2.17;;
74650;SDS011;63169;46.042;14.592;2022-09-03T11:38:57;2.63;;;1.17;;
74650;SDS011;63169;46.042;14.592;2022-09-03T11:41:25;3.38;;;1.15;;
74650;SDS011;63169;46.042;14.592;2022-09-03T11:43:52;7.30;;;1.08;;
74650;SDS011;63169;46.042;14.592;2022-09-03T11:48:50;2.72;;;1.10;;
74650;SDS011;63169;46.042;14.592;2022-09-03T11:56:26;3.40;;;1.48;;
74650;SDS011;63169;46.042;14.592;2022-09-03T12:01:37;3.83;;;0.90;;
74650;SDS011;63169;46.042;14.592;2022-09-03T12:04:05;2.00;;;1.50;;
74650;SDS011;63169;46.042;14.592;2022-09-03T12:06:40;2.35;;;1.30;;
74650;SDS011;63169;46.042;14.592;2022-09-03T12:17:54;2.35;;;1.13;;
74650;SDS011;63169;46.042;14.592;2022-09-03T12:20:40;3.40;;;1.17;;
74650;SDS011;63169;46.042;14.592;2022-09-03T12:23:08;3.00;;;0.85;;
74650;SDS011;63169;46.042;14.592;2022-09-03T12:25:35;1.95;;;0.85;;
74650;SDS011;63169;46.042;14.592;2022-09-03T12:28:10;2.35;;;1.35;;
74650;SDS011;63169;46.042;14.592;2022-09-03T12:30:36;2.83;;;2.60;;
74650;SDS011;63169;46.042;14.592;2022-09-03T12:33:04;3.40;;;1.02;;
74650;SDS011;63169;46.042;14.592;2022-09-03T12:35:32;2.08;;;0.85;;
74650;SDS011;63169;46.042;14.592;2022-09-03T12:37:58;3.60;;;1.05;;
74650;SDS011;63169;46.042;14.592;2022-09-03T12:40:24;1.95;;;0.88;;
74650;SDS011;63169;46.042;14.592;2022-09-03T12:42:54;3.08;;;1.15;;
74650;SDS011;63169;46.042;14.592;2022-09-03T12:45:21;2.35;;;1.25;;
74650;SDS011;63169;46.042;14.592;2022-09-03T12:47:48;1.90;;;1.13;;
74650;SDS011;63169;46.042;14.592;2022-09-03T12:50:15;2.78;;;1.08;;
74650;SDS011;63169;46.042;14.592;2022-09-03T12:55:28;32.80;;;10.00;;
74650;SDS011;63169;46.042;14.592;2022-09-03T12:58:02;5.53;;;2.35;;
74650;SDS011;63169;46.042;14.592;2022-09-03T13:00:32;6.20;;;2.58;;
74650;SDS011;63169;46.042;14.592;2022-09-03T13:03:00;6.50;;;4.20;;
74650;SDS011;63169;46.042;14.592;2022-09-03T13:05:31;8.48;;;2.53;;
74650;SDS011;63169;46.042;14.592;2022-09-03T13:07:58;8.48;;;2.38;;
74650;SDS011;63169;46.042;14.592;2022-09-03T13:10:30;4.40;;;1.63;;
74650;SDS011;63169;46.042;14.592;2022-09-03T13:13:23;3.75;;;1.63;;
74650;SDS011;63169;46.042;14.592;2022-09-03T13:15:56;2.13;;;0.98;;
74650;SDS011;63169;46.042;14.592;2022-09-03T13:31:48;6.18;;;2.47;;
74650;SDS011;63169;46.042;14.592;2022-09-03T13:34:21;2.47;;;1.05;;
74650;SDS011;63169;46.042;14.592;2022-09-03T13:36:57;4.88;;;2.42;;
74650;SDS011;63169;46.042;14.592;2022-09-03T13:42:10;7.53;;;2.88;;
74650;SDS011;63169;46.042;14.592;2022-09-03T13:44:44;5.18;;;2.15;;
74650;SDS011;63169;46.042;14.592;2022-09-03T13:49:50;3.35;;;1.27;;
74650;SDS011;63169;46.042;14.592;2022-09-03T13:52:42;2.50;;;1.35;;
74650;SDS011;63169;46.042;14.592;2022-09-03T14:03:35;4.53;;;2.25;;
74650;SDS011;63169;46.042;14.592;2022-09-03T14:06:17;3.88;;;1.45;;
74650;SDS011;63169;46.042;14.592;2022-09-03T14:14:53;8.60;;;2.40;;
74650;SDS011;63169;46.042;14.592;2022-09-03T14:20:11;4.70;;;1.35;;
74650;SDS011;63169;46.042;14.592;2022-09-03T14:22:46;2.97;;;1.00;;
74650;SDS011;63169;46.042;14.592;2022-09-03T14:25:25;2.20;;;1.10;;
74650;SDS011;63169;46.042;14.592;2022-09-03T14:27:51;2.85;;;1.20;;
74650;SDS011;63169;46.042;14.592;2022-09-03T14:30:24;2.67;;;1.65;;
74650;SDS011;63169;46.042;14.592;2022-09-03T14:47:13;6.32;;;2.42;;
74650;SDS011;63169;46.042;14.592;2022-09-03T14:52:41;2.65;;;1.20;;
74650;SDS011;63169;46.042;14.592;2022-09-03T14:58:36;4.18;;;1.42;;
74650;SDS011;63169;46.042;14.592;2022-09-03T15:01:12;2.80;;;1.17;;
74650;SDS011;63169;46.042;14.592;2022-09-03T15:09:27;3.83;;;1.20;;
74650;SDS011;63169;46.042;14.592;2022-09-03T15:14:54;3.30;;;1.63;;
74650;SDS011;63169;46.042;14.592;2022-09-03T15:25:57;3.72;;;1.30;;
74650;SDS011;63169;46.042;14.592;2022-09-03T15:28:37;2.40;;;1.48;;
74650;SDS011;63169;46.042;14.592;2022-09-03T15:33:43;3.25;;;1.52;;
74650;SDS011;63169;46.042;14.592;2022-09-03T15:36:42;3.40;;;1.38;;
74650;SDS011;63169;46.042;14.592;2022-09-03T15:41:52;2.05;;;1.25;;
74650;SDS011;63169;46.042;14.592;2022-09-03T15:44:21;3.00;;;1.05;;
74650;SDS011;63169;46.042;14.592;2022-09-03T15:46:55;2.88;;;0.85;;
74650;SDS011;63169;46.042;14.592;2022-09-03T15:49:42;2.75;;;0.85;;
74650;SDS011;63169;46.042;14.592;2022-09-03T16:00:58;4.70;;;1.02;;
74650;SDS011;63169;46.042;14.592;2022-09-03T16:06:15;4.05;;;1.20;;
74650;SDS011;63169;46.042;14.592;2022-09-03T16:24:58;3.17;;;1.73;;
74650;SDS011;63169;46.042;14.592;2022-09-03T16:33:15;2.30;;;1.00;;
74650;SDS011;63169;46.042;14.592;2022-09-03T17:19:21;3.65;;;0.98;;
74650;SDS011;63169;46.042;14.592;2022-09-03T17:24:51;3.03;;;0.88;;
74650;SDS011;63169;46.042;14.592;2022-09-03T17:36:10;2.70;;;0.98;;
74650;SDS011;63169;46.042;14.592;2022-09-03T17:44:11;3.67;;;1.10;;
74650;SDS011;63169;46.042;14.592;2022-09-03T17:49:29;4.40;;;1.50;;
74650;SDS011;63169;46.042;14.592;2022-09-03T17:51:58;3.58;;;1.13;;
74650;SDS011;63169;46.042;14.592;2022-09-03T17:54:35;2.05;;;1.02;;
74650;SDS011;63169;46.042;14.592;2022-09-03T18:02:20;2.45;;;1.58;;
74650;SDS011;63169;46.042;14.592;2022-09-03T18:04:57;4.38;;;1.02;;
74650;SDS011;63169;46.042;14.592;2022-09-03T18:07:39;4.28;;;3.63;;
74650;SDS011;63169;46.042;14.592;2022-09-03T18:10:18;2.97;;;1.30;;
74650;SDS011;63169;46.042;14.592;2022-09-03T18:13:00;3.05;;;1.33;;
74650;SDS011;63169;46.042;14.592;2022-09-03T18:18:03;3.00;;;1.50;;
74650;SDS011;63169;46.042;14.592;2022-09-03T18:20:31;2.78;;;0.95;;
74650;SDS011;63169;46.042;14.592;2022-09-03T18:23:28;4.40;;;1.02;;
74650;SDS011;63169;46.042;14.592;2022-09-03T18:26:19;4.55;;;1.30;;
74650;SDS011;63169;46.042;14.592;2022-09-03T18:29:18;3.00;;;1.13;;
74650;SDS011;63169;46.042;14.592;2022-09-03T18:32:23;5.20;;;1.58;;
74650;SDS011;63169;46.042;14.592;2022-09-03T18:37:51;3.50;;;1.42;;
74650;SDS011;63169;46.042;14.592;2022-09-03T18:40:42;4.07;;;2.58;;
74650;SDS011;63169;46.042;14.592;2022-09-03T18:43:47;2.17;;;1.02;;
74650;SDS011;63169;46.042;14.592;2022-09-03T18:55:45;5.03;;;1.08;;
74650;SDS011;63169;46.042;14.592;2022-09-03T19:02:05;8.13;;;1.67;;
74650;SDS011;63169;46.042;14.592;2022-09-03T19:10:45;3.17;;;1.35;;
74650;SDS011;63169;46.042;14.592;2022-09-03T19:13:35;3.10;;;1.10;;
74650;SDS011;63169;46.042;14.592;2022-09-03T19:19:13;2.83;;;1.48;;
74650;SDS011;63169;46.042;14.592;2022-09-03T19:22:10;3.58;;;1.45;;
74650;SDS011;63169;46.042;14.592;2022-09-03T19:25:03;3.03;;;1.52;;
74650;SDS011;63169;46.042;14.592;2022-09-03T19:33:43;2.72;;;1.30;;
74650;SDS011;63169;46.042;14.592;2022-09-03T19:36:38;3.78;;;1.67;;
74650;SDS011;63169;46.042;14.592;2022-09-03T19:52:00;3.67;;;1.73;;
74650;SDS011;63169;46.042;14.592;2022-09-03T19:54:51;3.15;;;1.83;;
74650;SDS011;63169;46.042;14.592;2022-09-03T19:57:38;3.40;;;1.50;;
74650;SDS011;63169;46.042;14.592;2022-09-03T20:00:23;4.22;;;1.88;;
74650;SDS011;63169;46.042;14.592;2022-09-03T20:03:07;3.08;;;1.40;;
74650;SDS011;63169;46.042;14.592;2022-09-03T20:05:52;3.83;;;1.63;;
74650;SDS011;63169;46.042;14.592;2022-09-03T20:11:20;3.65;;;1.80;;
74650;SDS011;63169;46.042;14.592;2022-09-03T20:13:47;5.07;;;2.85;;
74650;SDS011;63169;46.042;14.592;2022-09-03T20:29:33;4.80;;;2.03;;
74650;SDS011;63169;46.042;14.592;2022-09-03T20:32:25;3.88;;;2.20;;
74650;SDS011;63169;46.042;14.592;2022-09-03T20:35:07;4.03;;;1.85;;
74650;SDS011;63169;46.042;14.592;2022-09-03T20:40:27;3.75;;;1.85;;
74650;SDS011;63169;46.042;14.592;2022-09-03T20:45:36;4.28;;;2.60;;
74650;SDS011;63169;46.042;14.592;2022-09-03T20:48:37;4.40;;;2.67;;
74650;SDS011;63169;46.042;14.592;2022-09-03T20:56:05;3.55;;;2.03;;
74650;SDS011;63169;46.042;14.592;2022-09-03T21:01:11;4.22;;;1.95;;
74650;SDS011;63169;46.042;14.592;2022-09-03T21:03:49;3.72;;;2.08;;
74650;SDS011;63169;46.042;14.592;2022-09-03T21:24:59;3.58;;;2.28;;
74650;SDS011;63169;46.042;14.592;2022-09-03T21:27:31;4.22;;;1.85;;
74650;SDS011;63169;46.042;14.592;2022-09-03T21:30:08;5.75;;;2.28;;
74650;SDS011;63169;46.042;14.592;2022-09-03T21:32:44;3.70;;;2.35;;
74650;SDS011;63169;46.042;14.592;2022-09-03T21:35:22;3.05;;;1.73;;
74650;SDS011;63169;46.042;14.592;2022-09-03T21:38:13;4.43;;;2.30;;
74650;SDS011;63169;46.042;14.592;2022-09-03T21:40:43;7.10;;;2.20;;
74650;SDS011;63169;46.042;14.592;2022-09-03T21:43:22;3.88;;;2.40;;
74650;SDS011;63169;46.042;14.592;2022-09-03T21:46:02;3.65;;;2.00;;
74650;SDS011;63169;46.042;14.592;2022-09-03T21:48:33;3.40;;;1.88;;
74650;SDS011;63169;46.042;14.592;2022-09-03T21:51:11;4.47;;;1.90;;
74650;SDS011;63169;46.042;14.592;2022-09-03T21:53:43;5.03;;;2.33;;
74650;SDS011;63169;46.042;14.592;2022-09-03T21:57:13;4.22;;;3.75;;
74650;SDS011;63169;46.042;14.592;2022-09-03T22:02:29;4.38;;;2.60;;
74650;SDS011;63169;46.042;14.592;2022-09-03T22:04:57;4.80;;;2.40;;
74650;SDS011;63169;46.042;14.592;2022-09-03T22:10:00;3.20;;;1.83;;
74650;SDS011;63169;46.042;14.592;2022-09-03T22:12:55;4.10;;;1.95;;
74650;SDS011;63169;46.042;14.592;2022-09-03T22:15:28;4.00;;;2.10;;
74650;SDS011;63169;46.042;14.592;2022-09-03T22:20:28;3.17;;;2.08;;
74650;SDS011;63169;46.042;14.592;2022-09-03T22:22:54;4.53;;;1.85;;
74650;SDS011;63169;46.042;14.592;2022-09-03T22:30:23;4.03;;;2.20;;
74650;SDS011;63169;46.042;14.592;2022-09-03T22:33:03;4.78;;;2.25;;
74650;SDS011;63169;46.042;14.592;2022-09-03T22:41:18;2.17;;;1.25;;
74650;SDS011;63169;46.042;14.592;2022-09-03T22:46:24;2.97;;;1.80;;